sensor_id;sensor_type;location;lat;lon;timestamp;P1;durP1;ratioP1;P2;durP2;ratioP2
72301;SDS011;60235;52.234;5.186;2023-07-28T00:00:50;21.88;;;6.60;;
72301;SDS011;60235;52.234;5.186;2023-07-28T00:03:16;17.38;;;6.07;;
72301;SDS011;60235;52.234;5.186;2023-07-28T00:05:43;22.73;;;7.05;;
72301;SDS011;60235;52.234;5.186;2023-07-28T00:08:09;18.70;;;6.55;;
72301;SDS011;60235;52.234;5.186;2023-07-28T00:10:39;21.33;;;6.82;;
72301;SDS011;60235;52.234;5.186;2023-07-28T00:13:06;21.25;;;7.18;;
72301;SDS011;60235;52.234;5.186;2023-07-28T00:15:32;19.25;;;6.97;;
72301;SDS011;60235;52.234;5.186;2023-07-28T00:17:58;19.63;;;7.20;;
72301;SDS011;60235;52.234;5.186;2023-07-28T00:20:25;22.13;;;7.85;;
72301;SDS011;60235;52.234;5.186;2023-07-28T00:22:51;28.35;;;8.70;;
72301;SDS011;60235;52.234;5.186;2023-07-28T00:25:17;22.60;;;8.68;;
72301;SDS011;60235;52.234;5.186;2023-07-28T00:27:43;25.67;;;8.30;;
72301;SDS011;60235;52.234;5.186;2023-07-28T00:30:10;25.80;;;8.73;;
72301;SDS011;60235;52.234;5.186;2023-07-28T00:32:36;20.52;;;8.07;;
72301;SDS011;60235;52.234;5.186;2023-07-28T00:35:02;22.10;;;7.88;;
72301;SDS011;60235;52.234;5.186;2023-07-28T00:37:28;23.88;;;8.25;;
72301;SDS011;60235;52.234;5.186;2023-07-28T00:39:54;24.25;;;8.23;;
72301;SDS011;60235;52.234;5.186;2023-07-28T00:42:20;18.88;;;8.65;;
72301;SDS011;60235;52.234;5.186;2023-07-28T00:44:46;28.63;;;9.93;;
72301;SDS011;60235;52.234;5.186;2023-07-28T00:47:12;32.22;;;9.82;;
72301;SDS011;60235;52.234;5.186;2023-07-28T00:49:39;27.67;;;10.68;;
72301;SDS011;60235;52.234;5.186;2023-07-28T00:52:08;22.63;;;9.32;;
72301;SDS011;60235;52.234;5.186;2023-07-28T00:54:35;32.50;;;10.35;;
72301;SDS011;60235;52.234;5.186;2023-07-28T00:57:02;30.98;;;10.10;;
72301;SDS011;60235;52.234;5.186;2023-07-28T00:59:28;31.25;;;10.93;;
72301;SDS011;60235;52.234;5.186;2023-07-28T01:01:54;31.38;;;11.10;;
72301;SDS011;60235;52.234;5.186;2023-07-28T01:04:20;38.53;;;11.20;;
72301;SDS011;60235;52.234;5.186;2023-07-28T01:06:53;33.30;;;10.95;;
72301;SDS011;60235;52.234;5.186;2023-07-28T01:09:23;33.50;;;11.00;;
72301;SDS011;60235;52.234;5.186;2023-07-28T01:11:53;36.28;;;11.52;;
72301;SDS011;60235;52.234;5.186;2023-07-28T01:14:20;40.90;;;12.52;;
72301;SDS011;60235;52.234;5.186;2023-07-28T01:16:45;34.08;;;12.10;;
72301;SDS011;60235;52.234;5.186;2023-07-28T01:19:12;45.63;;;13.68;;
72301;SDS011;60235;52.234;5.186;2023-07-28T01:21:38;34.95;;;12.60;;
72301;SDS011;60235;52.234;5.186;2023-07-28T01:26:53;32.42;;;11.55;;
72301;SDS011;60235;52.234;5.186;2023-07-28T01:29:20;40.58;;;12.35;;
72301;SDS011;60235;52.234;5.186;2023-07-28T01:31:46;36.03;;;12.90;;
72301;SDS011;60235;52.234;5.186;2023-07-28T01:34:13;36.47;;;13.80;;
72301;SDS011;60235;52.234;5.186;2023-07-28T01:36:38;33.30;;;12.98;;
72301;SDS011;60235;52.234;5.186;2023-07-28T01:39:04;35.70;;;12.80;;
72301;SDS011;60235;52.234;5.186;2023-07-28T01:41:30;36.65;;;12.50;;
72301;SDS011;60235;52.234;5.186;2023-07-28T01:43:56;33.35;;;11.45;;
72301;SDS011;60235;52.234;5.186;2023-07-28T01:46:22;36.42;;;12.52;;
72301;SDS011;60235;52.234;5.186;2023-07-28T01:48:48;39.10;;;13.02;;
72301;SDS011;60235;52.234;5.186;2023-07-28T01:51:14;39.70;;;12.75;;
72301;SDS011;60235;52.234;5.186;2023-07-28T01:53:40;38.33;;;12.52;;
72301;SDS011;60235;52.234;5.186;2023-07-28T01:56:06;31.50;;;12.07;;
72301;SDS011;60235;52.234;5.186;2023-07-28T01:58:32;31.58;;;11.70;;
72301;SDS011;60235;52.234;5.186;2023-07-28T02:00:58;31.50;;;11.95;;
72301;SDS011;60235;52.234;5.186;2023-07-28T02:03:24;32.13;;;11.95;;
72301;SDS011;60235;52.234;5.186;2023-07-28T02:05:50;34.08;;;11.73;;
72301;SDS011;60235;52.234;5.186;2023-07-28T02:08:17;31.88;;;10.57;;
72301;SDS011;60235;52.234;5.186;2023-07-28T02:10:44;31.35;;;11.10;;
72301;SDS011;60235;52.234;5.186;2023-07-28T02:13:10;35.83;;;11.57;;
72301;SDS011;60235;52.234;5.186;2023-07-28T02:15:36;35.30;;;11.65;;
72301;SDS011;60235;52.234;5.186;2023-07-28T02:18:02;34.35;;;11.43;;
72301;SDS011;60235;52.234;5.186;2023-07-28T02:20:29;26.95;;;10.68;;
72301;SDS011;60235;52.234;5.186;2023-07-28T02:22:55;30.42;;;11.95;;
72301;SDS011;60235;52.234;5.186;2023-07-28T02:25:21;34.42;;;11.32;;
72301;SDS011;60235;52.234;5.186;2023-07-28T02:27:47;36.95;;;11.32;;
72301;SDS011;60235;52.234;5.186;2023-07-28T02:30:13;33.80;;;11.40;;
72301;SDS011;60235;52.234;5.186;2023-07-28T02:32:39;35.85;;;10.85;;
72301;SDS011;60235;52.234;5.186;2023-07-28T02:35:05;29.42;;;10.68;;
72301;SDS011;60235;52.234;5.186;2023-07-28T02:37:31;32.42;;;10.80;;
72301;SDS011;60235;52.234;5.186;2023-07-28T02:39:57;31.83;;;11.50;;
72301;SDS011;60235;52.234;5.186;2023-07-28T02:42:23;28.02;;;10.93;;
72301;SDS011;60235;52.234;5.186;2023-07-28T02:44:50;32.35;;;11.48;;
72301;SDS011;60235;52.234;5.186;2023-07-28T02:47:16;33.67;;;10.82;;
72301;SDS011;60235;52.234;5.186;2023-07-28T02:49:42;37.13;;;11.50;;
72301;SDS011;60235;52.234;5.186;2023-07-28T02:52:08;35.42;;;12.02;;
72301;SDS011;60235;52.234;5.186;2023-07-28T02:54:34;39.35;;;11.80;;
72301;SDS011;60235;52.234;5.186;2023-07-28T02:57:00;30.95;;;10.43;;
72301;SDS011;60235;52.234;5.186;2023-07-28T02:59:26;37.45;;;11.73;;
72301;SDS011;60235;52.234;5.186;2023-07-28T03:01:52;31.20;;;11.18;;
72301;SDS011;60235;52.234;5.186;2023-07-28T03:04:18;38.78;;;10.43;;
72301;SDS011;60235;52.234;5.186;2023-07-28T03:06:47;38.72;;;11.88;;
72301;SDS011;60235;52.234;5.186;2023-07-28T03:09:13;33.90;;;10.82;;
72301;SDS011;60235;52.234;5.186;2023-07-28T03:11:43;37.63;;;10.48;;
72301;SDS011;60235;52.234;5.186;2023-07-28T03:14:09;36.97;;;11.07;;
72301;SDS011;60235;52.234;5.186;2023-07-28T03:16:36;27.65;;;10.20;;
72301;SDS011;60235;52.234;5.186;2023-07-28T03:19:02;32.08;;;10.10;;
72301;SDS011;60235;52.234;5.186;2023-07-28T03:21:29;28.05;;;9.65;;
72301;SDS011;60235;52.234;5.186;2023-07-28T03:23:56;27.30;;;10.65;;
72301;SDS011;60235;52.234;5.186;2023-07-28T03:26:22;31.50;;;10.50;;
72301;SDS011;60235;52.234;5.186;2023-07-28T03:28:48;33.50;;;10.75;;
72301;SDS011;60235;52.234;5.186;2023-07-28T03:31:14;31.98;;;10.52;;
72301;SDS011;60235;52.234;5.186;2023-07-28T03:33:40;26.63;;;10.55;;
72301;SDS011;60235;52.234;5.186;2023-07-28T03:36:06;35.30;;;11.65;;
72301;SDS011;60235;52.234;5.186;2023-07-28T03:38:33;30.85;;;9.93;;
72301;SDS011;60235;52.234;5.186;2023-07-28T03:40:59;36.50;;;10.73;;
72301;SDS011;60235;52.234;5.186;2023-07-28T03:43:25;31.67;;;11.27;;
72301;SDS011;60235;52.234;5.186;2023-07-28T03:45:51;41.85;;;10.77;;
72301;SDS011;60235;52.234;5.186;2023-07-28T03:48:17;32.47;;;10.07;;
72301;SDS011;60235;52.234;5.186;2023-07-28T03:50:43;36.47;;;10.38;;
72301;SDS011;60235;52.234;5.186;2023-07-28T03:53:09;33.13;;;11.02;;
72301;SDS011;60235;52.234;5.186;2023-07-28T03:55:35;31.42;;;10.82;;
72301;SDS011;60235;52.234;5.186;2023-07-28T03:58:01;31.77;;;10.93;;
72301;SDS011;60235;52.234;5.186;2023-07-28T04:00:27;29.10;;;10.55;;
72301;SDS011;60235;52.234;5.186;2023-07-28T04:02:53;32.08;;;10.95;;
72301;SDS011;60235;52.234;5.186;2023-07-28T04:05:19;40.90;;;11.35;;
72301;SDS011;60235;52.234;5.186;2023-07-28T04:07:45;37.80;;;10.43;;
72301;SDS011;60235;52.234;5.186;2023-07-28T04:10:11;38.20;;;10.48;;
72301;SDS011;60235;52.234;5.186;2023-07-28T04:12:37;27.45;;;9.68;;
72301;SDS011;60235;52.234;5.186;2023-07-28T04:15:03;29.95;;;10.70;;
72301;SDS011;60235;52.234;5.186;2023-07-28T04:17:30;28.50;;;11.13;;
72301;SDS011;60235;52.234;5.186;2023-07-28T04:19:55;34.33;;;11.15;;
72301;SDS011;60235;52.234;5.186;2023-07-28T04:22:21;34.05;;;11.93;;
72301;SDS011;60235;52.234;5.186;2023-07-28T04:24:47;32.53;;;11.38;;
72301;SDS011;60235;52.234;5.186;2023-07-28T04:27:14;31.10;;;10.82;;
72301;SDS011;60235;52.234;5.186;2023-07-28T04:29:40;34.65;;;10.95;;
72301;SDS011;60235;52.234;5.186;2023-07-28T04:32:06;39.50;;;11.68;;
72301;SDS011;60235;52.234;5.186;2023-07-28T04:34:33;40.03;;;11.60;;
72301;SDS011;60235;52.234;5.186;2023-07-28T04:36:59;31.00;;;10.52;;
72301;SDS011;60235;52.234;5.186;2023-07-28T04:39:25;35.28;;;11.35;;
72301;SDS011;60235;52.234;5.186;2023-07-28T04:41:51;39.20;;;12.63;;
72301;SDS011;60235;52.234;5.186;2023-07-28T04:44:17;40.90;;;11.55;;
72301;SDS011;60235;52.234;5.186;2023-07-28T04:46:45;38.17;;;12.32;;
72301;SDS011;60235;52.234;5.186;2023-07-28T04:49:13;33.30;;;11.75;;
72301;SDS011;60235;52.234;5.186;2023-07-28T04:51:39;38.55;;;12.32;;
72301;SDS011;60235;52.234;5.186;2023-07-28T04:54:05;35.38;;;11.25;;
72301;SDS011;60235;52.234;5.186;2023-07-28T04:56:31;40.50;;;10.85;;
72301;SDS011;60235;52.234;5.186;2023-07-28T04:58:57;42.33;;;12.40;;
72301;SDS011;60235;52.234;5.186;2023-07-28T05:01:24;36.90;;;11.52;;
72301;SDS011;60235;52.234;5.186;2023-07-28T05:03:50;37.72;;;12.60;;
72301;SDS011;60235;52.234;5.186;2023-07-28T05:06:16;51.85;;;13.90;;
72301;SDS011;60235;52.234;5.186;2023-07-28T05:08:43;45.00;;;12.85;;
72301;SDS011;60235;52.234;5.186;2023-07-28T05:11:09;44.38;;;13.38;;
72301;SDS011;60235;52.234;5.186;2023-07-28T05:13:35;46.05;;;14.00;;
72301;SDS011;60235;52.234;5.186;2023-07-28T05:16:00;37.10;;;12.68;;
72301;SDS011;60235;52.234;5.186;2023-07-28T05:18:26;51.20;;;12.68;;
72301;SDS011;60235;52.234;5.186;2023-07-28T05:20:52;33.65;;;11.95;;
72301;SDS011;60235;52.234;5.186;2023-07-28T05:23:19;41.25;;;14.32;;
72301;SDS011;60235;52.234;5.186;2023-07-28T05:25:45;36.63;;;13.50;;
72301;SDS011;60235;52.234;5.186;2023-07-28T05:28:11;44.65;;;13.20;;
72301;SDS011;60235;52.234;5.186;2023-07-28T05:30:37;41.05;;;12.65;;
72301;SDS011;60235;52.234;5.186;2023-07-28T05:33:03;40.70;;;12.50;;
72301;SDS011;60235;52.234;5.186;2023-07-28T05:35:29;32.72;;;12.95;;
72301;SDS011;60235;52.234;5.186;2023-07-28T05:37:55;42.13;;;12.73;;
72301;SDS011;60235;52.234;5.186;2023-07-28T05:40:21;43.42;;;13.13;;
72301;SDS011;60235;52.234;5.186;2023-07-28T05:42:47;37.63;;;13.00;;
72301;SDS011;60235;52.234;5.186;2023-07-28T05:45:13;34.20;;;13.32;;
72301;SDS011;60235;52.234;5.186;2023-07-28T05:47:39;33.42;;;12.98;;
72301;SDS011;60235;52.234;5.186;2023-07-28T05:50:05;36.90;;;12.70;;
72301;SDS011;60235;52.234;5.186;2023-07-28T05:52:31;39.95;;;13.68;;
72301;SDS011;60235;52.234;5.186;2023-07-28T05:54:57;36.22;;;13.48;;
72301;SDS011;60235;52.234;5.186;2023-07-28T05:57:23;37.42;;;13.65;;
72301;SDS011;60235;52.234;5.186;2023-07-28T05:59:49;32.53;;;13.13;;
72301;SDS011;60235;52.234;5.186;2023-07-28T06:02:16;36.20;;;13.13;;
72301;SDS011;60235;52.234;5.186;2023-07-28T06:04:42;34.60;;;13.40;;
72301;SDS011;60235;52.234;5.186;2023-07-28T06:07:09;31.40;;;12.95;;
72301;SDS011;60235;52.234;5.186;2023-07-28T06:09:35;39.80;;;14.13;;
72301;SDS011;60235;52.234;5.186;2023-07-28T06:12:01;34.58;;;12.82;;
72301;SDS011;60235;52.234;5.186;2023-07-28T06:14:27;34.13;;;12.98;;
72301;SDS011;60235;52.234;5.186;2023-07-28T06:16:53;39.78;;;14.20;;
72301;SDS011;60235;52.234;5.186;2023-07-28T06:19:19;35.08;;;13.30;;
72301;SDS011;60235;52.234;5.186;2023-07-28T06:21:49;31.30;;;12.82;;
72301;SDS011;60235;52.234;5.186;2023-07-28T06:24:16;37.22;;;12.98;;
72301;SDS011;60235;52.234;5.186;2023-07-28T06:26:42;37.20;;;12.55;;
72301;SDS011;60235;52.234;5.186;2023-07-28T06:29:08;31.63;;;12.63;;
72301;SDS011;60235;52.234;5.186;2023-07-28T06:31:34;37.88;;;12.88;;
72301;SDS011;60235;52.234;5.186;2023-07-28T06:34:00;36.92;;;12.75;;
72301;SDS011;60235;52.234;5.186;2023-07-28T06:36:26;32.03;;;12.73;;
72301;SDS011;60235;52.234;5.186;2023-07-28T06:38:52;32.72;;;11.85;;
72301;SDS011;60235;52.234;5.186;2023-07-28T06:41:20;34.10;;;12.82;;
72301;SDS011;60235;52.234;5.186;2023-07-28T06:43:46;32.72;;;12.60;;
72301;SDS011;60235;52.234;5.186;2023-07-28T06:46:13;27.83;;;11.82;;
72301;SDS011;60235;52.234;5.186;2023-07-28T06:48:39;30.30;;;12.27;;
72301;SDS011;60235;52.234;5.186;2023-07-28T06:51:05;34.15;;;13.02;;
72301;SDS011;60235;52.234;5.186;2023-07-28T06:53:31;28.15;;;11.63;;
72301;SDS011;60235;52.234;5.186;2023-07-28T06:55:59;33.50;;;13.82;;
72301;SDS011;60235;52.234;5.186;2023-07-28T06:58:25;33.80;;;14.00;;
72301;SDS011;60235;52.234;5.186;2023-07-28T07:00:51;38.03;;;13.10;;
72301;SDS011;60235;52.234;5.186;2023-07-28T07:03:18;33.85;;;12.82;;
72301;SDS011;60235;52.234;5.186;2023-07-28T07:05:44;40.97;;;14.43;;
72301;SDS011;60235;52.234;5.186;2023-07-28T07:08:10;32.63;;;13.95;;
72301;SDS011;60235;52.234;5.186;2023-07-28T07:10:37;41.75;;;14.10;;
72301;SDS011;60235;52.234;5.186;2023-07-28T07:13:03;34.55;;;13.70;;
72301;SDS011;60235;52.234;5.186;2023-07-28T07:15:29;35.47;;;14.48;;
72301;SDS011;60235;52.234;5.186;2023-07-28T07:17:55;36.45;;;13.27;;
72301;SDS011;60235;52.234;5.186;2023-07-28T07:20:21;31.95;;;13.25;;
72301;SDS011;60235;52.234;5.186;2023-07-28T07:22:47;29.35;;;13.55;;
72301;SDS011;60235;52.234;5.186;2023-07-28T07:25:13;29.73;;;13.00;;
72301;SDS011;60235;52.234;5.186;2023-07-28T07:27:39;27.88;;;12.85;;
72301;SDS011;60235;52.234;5.186;2023-07-28T07:30:05;31.13;;;13.10;;
72301;SDS011;60235;52.234;5.186;2023-07-28T07:32:32;27.13;;;12.75;;
72301;SDS011;60235;52.234;5.186;2023-07-28T07:34:59;29.90;;;12.88;;
72301;SDS011;60235;52.234;5.186;2023-07-28T07:37:25;25.60;;;12.88;;
72301;SDS011;60235;52.234;5.186;2023-07-28T07:39:51;27.80;;;12.82;;
72301;SDS011;60235;52.234;5.186;2023-07-28T07:42:17;25.73;;;12.48;;
72301;SDS011;60235;52.234;5.186;2023-07-28T07:44:43;27.08;;;12.90;;
72301;SDS011;60235;52.234;5.186;2023-07-28T07:47:13;32.17;;;13.73;;
72301;SDS011;60235;52.234;5.186;2023-07-28T07:49:42;29.38;;;12.02;;
72301;SDS011;60235;52.234;5.186;2023-07-28T07:52:08;26.92;;;12.60;;
72301;SDS011;60235;52.234;5.186;2023-07-28T07:54:35;26.20;;;12.40;;
72301;SDS011;60235;52.234;5.186;2023-07-28T07:57:01;22.58;;;12.45;;
72301;SDS011;60235;52.234;5.186;2023-07-28T07:59:27;29.52;;;13.43;;
72301;SDS011;60235;52.234;5.186;2023-07-28T08:01:56;25.92;;;11.63;;
72301;SDS011;60235;52.234;5.186;2023-07-28T08:04:25;26.95;;;12.15;;
72301;SDS011;60235;52.234;5.186;2023-07-28T08:06:52;25.15;;;12.05;;
72301;SDS011;60235;52.234;5.186;2023-07-28T08:09:19;25.35;;;12.70;;
72301;SDS011;60235;52.234;5.186;2023-07-28T08:11:45;25.08;;;12.88;;
72301;SDS011;60235;52.234;5.186;2023-07-28T08:14:11;23.52;;;11.55;;
72301;SDS011;60235;52.234;5.186;2023-07-28T08:16:37;32.03;;;11.98;;
72301;SDS011;60235;52.234;5.186;2023-07-28T08:19:03;23.58;;;10.90;;
72301;SDS011;60235;52.234;5.186;2023-07-28T08:21:29;25.25;;;10.63;;
72301;SDS011;60235;52.234;5.186;2023-07-28T08:23:56;17.80;;;8.88;;
72301;SDS011;60235;52.234;5.186;2023-07-28T08:26:22;17.85;;;7.65;;
72301;SDS011;60235;52.234;5.186;2023-07-28T08:28:48;13.68;;;6.32;;
72301;SDS011;60235;52.234;5.186;2023-07-28T08:31:14;12.60;;;6.00;;
72301;SDS011;60235;52.234;5.186;2023-07-28T08:33:40;13.68;;;6.15;;
72301;SDS011;60235;52.234;5.186;2023-07-28T08:36:06;17.63;;;6.53;;
72301;SDS011;60235;52.234;5.186;2023-07-28T08:38:32;12.93;;;6.20;;
72301;SDS011;60235;52.234;5.186;2023-07-28T08:40:58;12.57;;;7.28;;
72301;SDS011;60235;52.234;5.186;2023-07-28T08:43:24;12.90;;;6.45;;
72301;SDS011;60235;52.234;5.186;2023-07-28T08:45:50;14.90;;;6.95;;
72301;SDS011;60235;52.234;5.186;2023-07-28T08:48:18;11.95;;;6.60;;
72301;SDS011;60235;52.234;5.186;2023-07-28T08:50:44;13.60;;;6.57;;
72301;SDS011;60235;52.234;5.186;2023-07-28T08:53:10;14.05;;;6.88;;
72301;SDS011;60235;52.234;5.186;2023-07-28T08:55:36;14.00;;;6.47;;
72301;SDS011;60235;52.234;5.186;2023-07-28T08:58:24;14.38;;;7.22;;
72301;SDS011;60235;52.234;5.186;2023-07-28T09:00:49;14.70;;;8.25;;
72301;SDS011;60235;52.234;5.186;2023-07-28T09:03:16;13.15;;;8.70;;
72301;SDS011;60235;52.234;5.186;2023-07-28T09:05:43;15.48;;;8.00;;
72301;SDS011;60235;52.234;5.186;2023-07-28T09:08:11;15.75;;;8.32;;
72301;SDS011;60235;52.234;5.186;2023-07-28T09:10:55;17.55;;;8.02;;
72301;SDS011;60235;52.234;5.186;2023-07-28T09:13:21;15.60;;;8.38;;
72301;SDS011;60235;52.234;5.186;2023-07-28T09:15:47;12.98;;;7.90;;
72301;SDS011;60235;52.234;5.186;2023-07-28T09:18:15;13.70;;;7.25;;
72301;SDS011;60235;52.234;5.186;2023-07-28T09:20:42;13.20;;;6.55;;
72301;SDS011;60235;52.234;5.186;2023-07-28T09:23:09;11.85;;;7.07;;
72301;SDS011;60235;52.234;5.186;2023-07-28T09:25:35;12.70;;;6.63;;
72301;SDS011;60235;52.234;5.186;2023-07-28T09:28:02;10.73;;;5.13;;
72301;SDS011;60235;52.234;5.186;2023-07-28T09:30:44;12.50;;;5.18;;
72301;SDS011;60235;52.234;5.186;2023-07-28T09:33:11;10.63;;;5.32;;
72301;SDS011;60235;52.234;5.186;2023-07-28T09:35:46;10.88;;;5.50;;
72301;SDS011;60235;52.234;5.186;2023-07-28T09:38:12;11.18;;;5.10;;
72301;SDS011;60235;52.234;5.186;2023-07-28T09:40:40;12.98;;;5.78;;
72301;SDS011;60235;52.234;5.186;2023-07-28T09:43:06;11.45;;;5.55;;
72301;SDS011;60235;52.234;5.186;2023-07-28T09:45:32;11.27;;;5.40;;
72301;SDS011;60235;52.234;5.186;2023-07-28T09:48:00;10.10;;;4.45;;
72301;SDS011;60235;52.234;5.186;2023-07-28T09:50:27;9.27;;;5.20;;
72301;SDS011;60235;52.234;5.186;2023-07-28T09:52:56;13.15;;;5.43;;
72301;SDS011;60235;52.234;5.186;2023-07-28T09:55:25;10.13;;;5.07;;
72301;SDS011;60235;52.234;5.186;2023-07-28T09:57:51;12.80;;;5.10;;
72301;SDS011;60235;52.234;5.186;2023-07-28T10:00:18;11.60;;;5.05;;
72301;SDS011;60235;52.234;5.186;2023-07-28T10:02:45;12.80;;;5.32;;
72301;SDS011;60235;52.234;5.186;2023-07-28T10:05:11;11.38;;;5.22;;
72301;SDS011;60235;52.234;5.186;2023-07-28T10:07:40;10.77;;;5.03;;
72301;SDS011;60235;52.234;5.186;2023-07-28T10:10:08;7.72;;;3.67;;
72301;SDS011;60235;52.234;5.186;2023-07-28T10:12:41;8.93;;;3.55;;
72301;SDS011;60235;52.234;5.186;2023-07-28T10:15:11;10.18;;;3.83;;
72301;SDS011;60235;52.234;5.186;2023-07-28T10:17:38;12.93;;;3.75;;
72301;SDS011;60235;52.234;5.186;2023-07-28T10:20:05;9.95;;;3.72;;
72301;SDS011;60235;52.234;5.186;2023-07-28T10:22:44;8.00;;;3.45;;
72301;SDS011;60235;52.234;5.186;2023-07-28T10:25:10;8.90;;;3.40;;
72301;SDS011;60235;52.234;5.186;2023-07-28T10:27:37;9.48;;;2.85;;
72301;SDS011;60235;52.234;5.186;2023-07-28T10:30:04;7.70;;;3.30;;
72301;SDS011;60235;52.234;5.186;2023-07-28T10:32:37;9.90;;;3.65;;
72301;SDS011;60235;52.234;5.186;2023-07-28T10:35:08;8.68;;;3.20;;
72301;SDS011;60235;52.234;5.186;2023-07-28T10:37:37;9.25;;;3.60;;
72301;SDS011;60235;52.234;5.186;2023-07-28T10:42:49;10.35;;;3.13;;
72301;SDS011;60235;52.234;5.186;2023-07-28T10:45:15;7.97;;;3.35;;
72301;SDS011;60235;52.234;5.186;2023-07-28T10:47:41;10.65;;;4.00;;
72301;SDS011;60235;52.234;5.186;2023-07-28T10:50:10;8.50;;;4.00;;
72301;SDS011;60235;52.234;5.186;2023-07-28T10:52:40;9.43;;;3.65;;
72301;SDS011;60235;52.234;5.186;2023-07-28T10:57:40;9.10;;;3.75;;
72301;SDS011;60235;52.234;5.186;2023-07-28T11:00:06;9.55;;;4.00;;
72301;SDS011;60235;52.234;5.186;2023-07-28T11:02:33;8.65;;;3.78;;
72301;SDS011;60235;52.234;5.186;2023-07-28T11:04:59;12.13;;;4.65;;
72301;SDS011;60235;52.234;5.186;2023-07-28T11:07:25;10.32;;;4.60;;
72301;SDS011;60235;52.234;5.186;2023-07-28T11:09:52;11.18;;;4.18;;
72301;SDS011;60235;52.234;5.186;2023-07-28T11:12:19;11.70;;;5.20;;
72301;SDS011;60235;52.234;5.186;2023-07-28T11:14:46;9.43;;;5.50;;
72301;SDS011;60235;52.234;5.186;2023-07-28T11:17:12;11.48;;;5.43;;
72301;SDS011;60235;52.234;5.186;2023-07-28T11:19:40;11.43;;;5.38;;
72301;SDS011;60235;52.234;5.186;2023-07-28T11:22:06;12.48;;;5.35;;
72301;SDS011;60235;52.234;5.186;2023-07-28T11:24:32;12.30;;;5.80;;
72301;SDS011;60235;52.234;5.186;2023-07-28T11:26:59;11.32;;;5.15;;
72301;SDS011;60235;52.234;5.186;2023-07-28T11:29:25;8.60;;;4.38;;
72301;SDS011;60235;52.234;5.186;2023-07-28T11:31:52;11.18;;;4.05;;
72301;SDS011;60235;52.234;5.186;2023-07-28T11:34:19;9.40;;;3.70;;
72301;SDS011;60235;52.234;5.186;2023-07-28T11:36:45;14.35;;;4.70;;
72301;SDS011;60235;52.234;5.186;2023-07-28T11:39:11;10.43;;;4.85;;
72301;SDS011;60235;52.234;5.186;2023-07-28T11:41:39;11.82;;;4.28;;
72301;SDS011;60235;52.234;5.186;2023-07-28T11:44:05;11.23;;;4.38;;
72301;SDS011;60235;52.234;5.186;2023-07-28T11:51:36;11.60;;;5.18;;
72301;SDS011;60235;52.234;5.186;2023-07-28T11:54:03;13.73;;;5.90;;
72301;SDS011;60235;52.234;5.186;2023-07-28T11:56:29;13.18;;;5.18;;
72301;SDS011;60235;52.234;5.186;2023-07-28T11:58:55;13.05;;;6.00;;
72301;SDS011;60235;52.234;5.186;2023-07-28T12:01:22;12.07;;;5.78;;
72301;SDS011;60235;52.234;5.186;2023-07-28T12:03:48;12.77;;;5.25;;
72301;SDS011;60235;52.234;5.186;2023-07-28T12:06:14;11.40;;;5.25;;
72301;SDS011;60235;52.234;5.186;2023-07-28T12:08:40;11.00;;;5.30;;
72301;SDS011;60235;52.234;5.186;2023-07-28T12:11:11;11.43;;;4.57;;
72301;SDS011;60235;52.234;5.186;2023-07-28T12:13:49;11.85;;;4.57;;
72301;SDS011;60235;52.234;5.186;2023-07-28T12:16:31;9.80;;;4.10;;
72301;SDS011;60235;52.234;5.186;2023-07-28T12:18:58;7.30;;;3.47;;
72301;SDS011;60235;52.234;5.186;2023-07-28T12:21:24;8.45;;;3.67;;
72301;SDS011;60235;52.234;5.186;2023-07-28T12:23:50;11.02;;;3.40;;
72301;SDS011;60235;52.234;5.186;2023-07-28T12:26:16;7.68;;;3.13;;
72301;SDS011;60235;52.234;5.186;2023-07-28T12:28:42;8.80;;;3.20;;
72301;SDS011;60235;52.234;5.186;2023-07-28T12:31:08;7.95;;;3.78;;
72301;SDS011;60235;52.234;5.186;2023-07-28T12:33:34;10.07;;;3.70;;
72301;SDS011;60235;52.234;5.186;2023-07-28T12:36:00;8.85;;;3.40;;
72301;SDS011;60235;52.234;5.186;2023-07-28T12:38:26;10.23;;;3.95;;
72301;SDS011;60235;52.234;5.186;2023-07-28T12:40:53;10.70;;;4.28;;
72301;SDS011;60235;52.234;5.186;2023-07-28T12:43:19;11.25;;;4.45;;
72301;SDS011;60235;52.234;5.186;2023-07-28T12:45:45;12.10;;;3.83;;
72301;SDS011;60235;52.234;5.186;2023-07-28T12:48:11;10.02;;;3.40;;
72301;SDS011;60235;52.234;5.186;2023-07-28T12:50:37;7.97;;;3.88;;
72301;SDS011;60235;52.234;5.186;2023-07-28T12:53:03;10.38;;;4.35;;
72301;SDS011;60235;52.234;5.186;2023-07-28T12:55:29;7.70;;;3.40;;
72301;SDS011;60235;52.234;5.186;2023-07-28T12:57:57;9.30;;;4.00;;
72301;SDS011;60235;52.234;5.186;2023-07-28T13:00:25;7.47;;;3.50;;
72301;SDS011;60235;52.234;5.186;2023-07-28T13:02:50;8.00;;;3.25;;
72301;SDS011;60235;52.234;5.186;2023-07-28T13:05:16;8.52;;;3.60;;
72301;SDS011;60235;52.234;5.186;2023-07-28T13:07:43;11.88;;;3.75;;
72301;SDS011;60235;52.234;5.186;2023-07-28T13:10:09;10.73;;;3.90;;
72301;SDS011;60235;52.234;5.186;2023-07-28T13:12:36;8.85;;;3.35;;
72301;SDS011;60235;52.234;5.186;2023-07-28T13:15:02;9.43;;;3.40;;
72301;SDS011;60235;52.234;5.186;2023-07-28T13:17:28;9.20;;;3.60;;
72301;SDS011;60235;52.234;5.186;2023-07-28T13:19:54;10.50;;;3.50;;
72301;SDS011;60235;52.234;5.186;2023-07-28T13:22:24;8.65;;;3.50;;
72301;SDS011;60235;52.234;5.186;2023-07-28T13:24:51;8.30;;;3.65;;
72301;SDS011;60235;52.234;5.186;2023-07-28T13:27:18;8.65;;;3.80;;
72301;SDS011;60235;52.234;5.186;2023-07-28T13:29:44;12.88;;;3.95;;
72301;SDS011;60235;52.234;5.186;2023-07-28T13:32:16;11.70;;;3.50;;
72301;SDS011;60235;52.234;5.186;2023-07-28T13:34:43;8.98;;;3.30;;
72301;SDS011;60235;52.234;5.186;2023-07-28T13:37:09;10.88;;;3.50;;
72301;SDS011;60235;52.234;5.186;2023-07-28T13:39:35;9.70;;;3.90;;
72301;SDS011;60235;52.234;5.186;2023-07-28T13:42:01;11.77;;;3.63;;
72301;SDS011;60235;52.234;5.186;2023-07-28T13:44:27;9.27;;;3.72;;
72301;SDS011;60235;52.234;5.186;2023-07-28T13:46:53;10.27;;;4.00;;
72301;SDS011;60235;52.234;5.186;2023-07-28T13:49:18;9.18;;;3.80;;
72301;SDS011;60235;52.234;5.186;2023-07-28T13:51:44;12.48;;;4.10;;
72301;SDS011;60235;52.234;5.186;2023-07-28T13:54:11;11.60;;;3.53;;
72301;SDS011;60235;52.234;5.186;2023-07-28T13:56:37;9.90;;;3.88;;
72301;SDS011;60235;52.234;5.186;2023-07-28T13:59:03;9.00;;;3.10;;
72301;SDS011;60235;52.234;5.186;2023-07-28T14:01:30;10.50;;;3.55;;
72301;SDS011;60235;52.234;5.186;2023-07-28T14:03:56;8.63;;;3.45;;
72301;SDS011;60235;52.234;5.186;2023-07-28T14:06:22;8.77;;;3.65;;
72301;SDS011;60235;52.234;5.186;2023-07-28T14:08:48;8.50;;;3.08;;
72301;SDS011;60235;52.234;5.186;2023-07-28T14:11:14;10.98;;;3.50;;
72301;SDS011;60235;52.234;5.186;2023-07-28T14:13:41;10.55;;;3.67;;
72301;SDS011;60235;52.234;5.186;2023-07-28T14:16:06;9.88;;;3.63;;
72301;SDS011;60235;52.234;5.186;2023-07-28T14:18:34;9.13;;;3.90;;
72301;SDS011;60235;52.234;5.186;2023-07-28T14:21:00;11.07;;;3.67;;
72301;SDS011;60235;52.234;5.186;2023-07-28T14:23:27;8.88;;;3.58;;
72301;SDS011;60235;52.234;5.186;2023-07-28T14:25:54;8.35;;;4.05;;
72301;SDS011;60235;52.234;5.186;2023-07-28T14:28:21;7.85;;;3.70;;
72301;SDS011;60235;52.234;5.186;2023-07-28T14:30:47;10.63;;;4.35;;
72301;SDS011;60235;52.234;5.186;2023-07-28T14:33:14;9.48;;;4.10;;
72301;SDS011;60235;52.234;5.186;2023-07-28T14:35:40;12.63;;;3.75;;
72301;SDS011;60235;52.234;5.186;2023-07-28T14:38:06;10.75;;;4.50;;
72301;SDS011;60235;52.234;5.186;2023-07-28T14:40:32;10.80;;;4.47;;